createdAt,value
2022-08-25T00:02:01.958Z,21.17
2022-08-25T00:04:30.128Z,21.15
2022-08-25T00:07:02.187Z,21.14
2022-08-25T00:09:31.385Z,21.20
2022-08-25T00:11:58.479Z,21.13
2022-08-25T00:14:33.526Z,21.08
2022-08-25T00:17:00.671Z,21.14
2022-08-25T00:19:32.028Z,21.17
2022-08-25T00:22:00.754Z,21.07
2022-08-25T00:24:28.309Z,20.97
2022-08-25T00:26:57.173Z,21.02
2022-08-25T00:29:27.863Z,21.21
2022-08-25T00:31:56.499Z,21.04
2022-08-25T00:34:26.924Z,20.96
2022-08-25T00:36:54.675Z,20.92
2022-08-25T00:39:23.431Z,20.96
2022-08-25T00:41:53.409Z,20.85
2022-08-25T00:44:20.623Z,20.83
2022-08-25T00:46:51.098Z,20.79
2022-08-25T00:49:25.433Z,20.77
2022-08-25T00:52:05.065Z,20.78
2022-08-25T00:54:39.064Z,20.82
2022-08-25T00:57:07.400Z,20.77
2022-08-25T00:59:34.420Z,20.61
2022-08-25T01:02:01.174Z,20.66
2022-08-25T01:04:28.395Z,20.67
2022-08-25T01:06:57.696Z,20.59
2022-08-25T01:09:24.911Z,20.59
2022-08-25T01:11:51.501Z,20.58
2022-08-25T01:14:20.333Z,20.60
2022-08-25T01:16:51.094Z,20.61
2022-08-25T01:19:20.788Z,20.44
2022-08-25T01:21:52.519Z,20.43
2022-08-25T01:24:45.594Z,20.38
2022-08-25T01:27:12.730Z,20.46
2022-08-25T01:29:40.185Z,20.38
2022-08-25T01:32:10.222Z,20.39
2022-08-25T01:34:41.613Z,20.39
2022-08-25T01:37:13.438Z,20.31
2022-08-25T01:39:40.904Z,20.30
2022-08-25T01:42:09.027Z,20.27
2022-08-25T01:44:39.635Z,20.27
2022-08-25T01:47:07.458Z,20.27
2022-08-25T01:49:34.918Z,20.30
2022-08-25T01:52:15.489Z,20.23
2022-08-25T01:54:41.998Z,20.14
2022-08-25T01:57:09.023Z,20.04
2022-08-25T01:59:35.513Z,20.03
2022-08-25T02:02:02.515Z,20.15
2022-08-25T02:04:32.589Z,20.06
2022-08-25T02:07:01.323Z,19.93
2022-08-25T02:09:28.002Z,19.90
2022-08-25T02:11:54.614Z,19.89
2022-08-25T02:14:21.195Z,19.97
2022-08-25T02:16:50.837Z,20.06
2022-08-25T02:19:18.849Z,20.07
2022-08-25T02:21:45.862Z,20.05
2022-08-25T02:24:13.432Z,20.04
2022-08-25T02:26:40.294Z,19.98
2022-08-25T02:29:08.379Z,20.00
2022-08-25T02:31:35.813Z,20.02
2022-08-25T02:34:03.612Z,20.02
2022-08-25T02:36:32.097Z,19.96
2022-08-25T02:38:59.941Z,19.87
2022-08-25T02:41:30.874Z,19.87
2022-08-25T02:43:58.708Z,19.85
2022-08-25T02:46:25.342Z,19.98
2022-08-25T02:48:53.251Z,19.95
2022-08-25T02:51:22.206Z,20.00
2022-08-25T02:53:49.765Z,19.97
2022-08-25T02:56:18.899Z,19.99
2022-08-25T02:58:47.171Z,20.02
2022-08-25T03:01:15.096Z,19.78
2022-08-25T03:03:44.428Z,19.78
2022-08-25T03:06:13.980Z,19.81
2022-08-25T03:08:42.119Z,19.72
2022-08-25T03:11:09.246Z,19.70
2022-08-25T03:13:36.602Z,19.70
2022-08-25T03:16:05.613Z,19.79
2022-08-25T03:18:39.024Z,19.82
2022-08-25T03:21:05.619Z,19.67
2022-08-25T03:23:32.574Z,19.66
2022-08-25T03:26:17.570Z,19.68
2022-08-25T03:28:44.197Z,19.39
2022-08-25T03:31:11.051Z,19.22
2022-08-25T03:33:38.323Z,19.32
2022-08-25T03:36:05.575Z,19.44
2022-08-25T03:38:32.175Z,19.37
2022-08-25T03:40:58.714Z,19.20
2022-08-25T03:43:25.261Z,19.23
2022-08-25T03:45:51.866Z,19.19
2022-08-25T03:48:18.566Z,19.21
2022-08-25T03:50:50.747Z,19.35
2022-08-25T03:53:19.563Z,19.26
2022-08-25T03:55:46.450Z,19.14
2022-08-25T03:58:14.272Z,19.10
2022-08-25T04:00:40.845Z,19.11
2022-08-25T04:03:07.525Z,19.02
2022-08-25T04:05:34.185Z,19.05
2022-08-25T04:08:01.744Z,19.07
2022-08-25T04:10:29.006Z,19.05
2022-08-25T04:12:56.131Z,18.86
2022-08-25T04:15:27.207Z,18.82
2022-08-25T04:17:58.739Z,18.98
2022-08-25T04:20:25.442Z,19.02
2022-08-25T04:22:52.012Z,19.05
2022-08-25T04:25:18.541Z,19.07
2022-08-25T04:27:45.052Z,19.08
2022-08-25T04:30:12.344Z,18.93
2022-08-25T04:32:38.887Z,18.63
2022-08-25T04:35:06.310Z,18.75
2022-08-25T04:37:33.358Z,18.68
2022-08-25T04:40:00.010Z,18.73
2022-08-25T04:42:27.010Z,18.54
2022-08-25T04:44:54.352Z,18.60
2022-08-25T04:47:21.433Z,18.59
2022-08-25T04:49:47.991Z,18.65
2022-08-25T04:52:14.855Z,18.56
2022-08-25T04:54:42.131Z,18.95
2022-08-25T04:57:08.744Z,19.07
2022-08-25T04:59:35.344Z,18.95
2022-08-25T05:02:03.230Z,19.09
2022-08-25T05:04:31.226Z,19.02
2022-08-25T05:06:58.781Z,19.22
2022-08-25T05:09:26.181Z,19.30
2022-08-25T05:11:53.774Z,19.43
2022-08-25T05:14:25.569Z,19.90
2022-08-25T05:16:56.876Z,21.26
2022-08-25T05:19:24.483Z,22.63
2022-08-25T05:21:52.238Z,22.86
2022-08-25T05:24:18.982Z,22.70
2022-08-25T05:26:45.903Z,23.46
2022-08-25T05:29:12.752Z,23.95
2022-08-25T05:31:43.195Z,24.52
2022-08-25T05:34:12.074Z,24.61
2022-08-25T05:36:43.027Z,24.73
2022-08-25T05:39:10.384Z,25.92
2022-08-25T05:41:37.104Z,25.87
2022-08-25T05:44:03.981Z,25.95
2022-08-25T05:46:31.822Z,26.43
2022-08-25T05:48:59.121Z,27.30
2022-08-25T05:51:26.277Z,28.13
2022-08-25T05:53:52.962Z,27.17
2022-08-25T05:56:19.885Z,27.65
2022-08-25T05:58:46.596Z,27.09
2022-08-25T06:01:45.183Z,26.79
2022-08-25T06:04:13.614Z,27.21
2022-08-25T06:06:40.652Z,26.18
2022-08-25T06:09:09.380Z,26.74
2022-08-25T06:11:38.001Z,26.88
2022-08-25T06:14:04.747Z,27.16
2022-08-25T06:16:31.525Z,27.28
2022-08-25T06:18:58.241Z,27.99
2022-08-25T06:21:25.275Z,28.04
2022-08-25T06:23:52.769Z,29.74
2022-08-25T06:26:21.055Z,29.21
2022-08-25T06:28:50.644Z,29.59
2022-08-25T06:31:18.757Z,28.22
2022-08-25T06:33:45.449Z,29.41
2022-08-25T06:36:12.425Z,28.43
2022-08-25T06:38:38.967Z,28.68
2022-08-25T06:41:10.404Z,29.04
2022-08-25T06:43:37.254Z,29.16
2022-08-25T06:46:22.225Z,30.44
2022-08-25T06:49:02.939Z,29.55
2022-08-25T06:51:29.903Z,31.00
2022-08-25T06:53:56.433Z,32.16
2022-08-25T06:56:23.043Z,31.29
2022-08-25T06:58:50.652Z,32.59
2022-08-25T07:01:23.290Z,35.23
2022-08-25T07:03:57.538Z,34.55
2022-08-25T07:06:25.020Z,33.32
2022-08-25T07:08:51.584Z,31.79
2022-08-25T07:11:20.376Z,32.13
2022-08-25T07:13:48.166Z,31.51
2022-08-25T07:16:15.542Z,30.57
2022-08-25T07:18:44.143Z,31.77
2022-08-25T07:21:12.400Z,32.58
2022-08-25T07:23:41.146Z,34.15
2022-08-25T07:26:36.275Z,34.43
2022-08-25T07:29:01.984Z,34.76
2022-08-25T07:31:30.119Z,33.21
2022-08-25T07:37:05.709Z,30.76
2022-08-25T07:39:34.316Z,33.36
2022-08-25T07:42:00.979Z,37.10
2022-08-25T07:44:28.660Z,34.04
2022-08-25T07:46:56.118Z,33.21
2022-08-25T07:49:24.482Z,34.67
2022-08-25T07:52:05.050Z,33.80
2022-08-25T07:54:35.107Z,32.07
2022-08-25T07:57:08.208Z,33.76
2022-08-25T07:59:39.614Z,34.68
2022-08-25T08:02:18.117Z,34.27
2022-08-25T08:04:48.866Z,34.20
2022-08-25T08:07:18.146Z,33.81
2022-08-25T08:09:44.673Z,35.14
2022-08-25T08:12:12.501Z,34.85
2022-08-25T08:14:44.775Z,33.92
2022-08-25T08:17:12.624Z,34.68
2022-08-25T08:19:43.098Z,32.18
2022-08-25T08:22:15.078Z,32.99
2022-08-25T08:24:56.268Z,34.72
2022-08-25T08:27:23.308Z,34.93
2022-08-25T08:29:50.094Z,35.35
2022-08-25T08:32:17.937Z,36.47
2022-08-25T08:34:46.560Z,34.72
2022-08-25T08:37:17.712Z,36.48
2022-08-25T08:39:44.607Z,37.38
2022-08-25T08:42:53.779Z,37.63
2022-08-25T08:45:40.440Z,34.72
2022-08-25T08:48:58.520Z,38.52
2022-08-25T08:51:39.785Z,36.72
2022-08-25T08:54:15.207Z,38.40
2022-08-25T08:56:48.360Z,38.00
2022-08-25T08:59:30.105Z,35.74
2022-08-25T09:02:04.008Z,36.65
2022-08-25T09:04:55.643Z,35.96
2022-08-25T09:07:30.816Z,35.68
2022-08-25T09:09:59.093Z,38.70
2022-08-25T09:12:34.807Z,37.04
2022-08-25T09:15:18.237Z,39.27
2022-08-25T09:18:31.585Z,36.72
2022-08-25T09:21:12.109Z,36.60
2022-08-25T09:24:00.616Z,36.35
2022-08-25T09:26:37.802Z,36.82
2022-08-25T09:29:16.775Z,35.99
2022-08-25T09:31:44.932Z,37.52
2022-08-25T09:34:23.701Z,37.39
2022-08-25T09:36:52.880Z,39.54
2022-08-25T09:39:21.285Z,36.89
2022-08-25T09:41:48.006Z,36.42
2022-08-25T09:44:18.243Z,36.35
2022-08-25T09:47:08.096Z,38.01
2022-08-25T09:49:38.707Z,37.22
2022-08-25T09:52:17.413Z,40.02
2022-08-25T09:54:47.804Z,38.83
2022-08-25T09:57:33.086Z,37.23
2022-08-25T10:00:18.587Z,36.88
2022-08-25T10:03:05.967Z,38.91
2022-08-25T10:05:37.575Z,36.30
2022-08-25T10:08:24.800Z,38.13
2022-08-25T10:10:57.376Z,38.61
2022-08-25T10:13:41.592Z,37.80
2022-08-25T10:16:25.895Z,38.89
2022-08-25T10:19:27.726Z,37.05
2022-08-25T10:22:11.167Z,36.16
2022-08-25T10:24:41.143Z,37.43
2022-08-25T10:27:20.472Z,36.82
2022-08-25T10:30:06.762Z,33.94
2022-08-25T10:33:11.063Z,34.38
2022-08-25T10:36:02.627Z,39.15
2022-08-25T10:38:36.978Z,36.57
2022-08-25T10:41:22.394Z,38.97
2022-08-25T10:44:34.770Z,38.51
2022-08-25T10:47:30.547Z,39.56
2022-08-25T10:50:10.794Z,40.36
2022-08-25T10:52:43.164Z,40.04
2022-08-25T10:55:30.360Z,36.84
2022-08-25T10:58:10.661Z,37.06
2022-08-25T11:00:54.591Z,38.74
2022-08-25T11:03:49.877Z,43.46
2022-08-25T11:06:32.982Z,36.98
2022-08-25T11:09:05.343Z,33.23
2022-08-25T11:11:40.044Z,33.20
2022-08-25T11:14:16.435Z,32.72
2022-08-25T11:17:11.271Z,34.56
2022-08-25T11:19:42.980Z,36.03
2022-08-25T11:22:20.976Z,33.54
2022-08-25T11:25:25.527Z,36.52
2022-08-25T11:28:14.344Z,35.43
2022-08-25T11:30:41.858Z,38.54
2022-08-25T11:33:13.605Z,41.10
2022-08-25T11:35:52.492Z,36.51
2022-08-25T11:38:40.714Z,38.98
2022-08-25T11:41:32.907Z,39.08
2022-08-25T11:44:22.666Z,37.70
2022-08-25T11:47:14.749Z,37.76
2022-08-25T11:50:03.638Z,37.05
2022-08-25T11:52:33.068Z,37.24
2022-08-25T11:55:29.967Z,37.95
2022-08-25T11:58:21.133Z,36.59
2022-08-25T12:00:48.190Z,39.51
2022-08-25T12:03:36.056Z,38.48
2022-08-25T12:06:17.664Z,40.83
2022-08-25T12:09:00.848Z,42.44
2022-08-25T12:11:44.089Z,40.23
2022-08-25T12:14:20.428Z,39.27
2022-08-25T12:16:56.155Z,37.15
2022-08-25T12:19:35.016Z,38.31
2022-08-25T12:22:03.210Z,37.09
2022-08-25T12:24:47.335Z,33.63
2022-08-25T12:27:52.984Z,32.31
2022-08-25T12:30:24.202Z,31.90
2022-08-25T12:32:54.033Z,32.16
2022-08-25T12:35:29.516Z,32.15
2022-08-25T12:38:04.833Z,33.19
2022-08-25T12:40:39.043Z,35.59
2022-08-25T12:43:19.768Z,34.24
2022-08-25T12:45:49.214Z,33.98
2022-08-25T12:48:25.244Z,35.18
2022-08-25T12:51:09.953Z,36.13
2022-08-25T12:53:40.340Z,36.94
2022-08-25T12:56:16.359Z,37.20
2022-08-25T12:59:00.134Z,37.35
2022-08-25T13:02:03.202Z,38.60
2022-08-25T13:04:33.801Z,36.86
2022-08-25T13:07:22.701Z,35.90
2022-08-25T13:10:13.895Z,38.80
2022-08-25T13:13:00.484Z,39.84
2022-08-25T13:15:48.771Z,40.39
2022-08-25T13:18:28.769Z,41.08
2022-08-25T13:21:04.491Z,40.33
2022-08-25T13:23:38.442Z,36.45
2022-08-25T13:26:05.314Z,37.80
2022-08-25T13:28:36.262Z,37.56
2022-08-25T13:31:19.660Z,37.81
2022-08-25T13:33:52.142Z,38.73
2022-08-25T13:36:46.985Z,37.78
2022-08-25T13:39:45.673Z,37.66
2022-08-25T13:42:17.615Z,35.72
2022-08-25T13:44:51.784Z,36.41
2022-08-25T13:47:43.526Z,36.55
2022-08-25T13:50:20.688Z,36.39
2022-08-25T13:52:54.487Z,37.15
2022-08-25T13:55:27.754Z,35.65
2022-08-25T13:57:57.809Z,34.82
2022-08-25T14:00:44.742Z,35.08
2022-08-25T14:03:46.170Z,34.38
2022-08-25T14:06:15.447Z,33.68
2022-08-25T14:09:02.214Z,32.66
2022-08-25T14:11:44.424Z,31.81
2022-08-25T14:14:32.669Z,31.81
2022-08-25T14:17:16.350Z,32.22
2022-08-25T14:19:52.029Z,32.57
2022-08-25T14:22:18.604Z,32.43
2022-08-25T14:24:45.267Z,32.55
2022-08-25T14:27:12.021Z,33.16
2022-08-25T14:29:41.311Z,32.91
2022-08-25T14:32:09.947Z,32.40
2022-08-25T14:34:39.543Z,32.16
2022-08-25T14:37:17.801Z,31.89
2022-08-25T14:39:44.854Z,31.95
2022-08-25T14:42:12.354Z,32.37
2022-08-25T14:44:38.928Z,32.53
2022-08-25T14:47:07.534Z,32.65
2022-08-25T14:49:38.686Z,32.69
2022-08-25T14:52:12.957Z,33.01
2022-08-25T14:54:39.544Z,32.60
2022-08-25T14:57:08.443Z,32.75
2022-08-25T14:59:35.612Z,32.39
2022-08-25T15:02:14.105Z,32.26
2022-08-25T15:04:48.903Z,32.26
2022-08-25T15:07:34.593Z,31.93
2022-08-25T15:10:01.202Z,31.52
2022-08-25T15:12:46.574Z,31.51
2022-08-25T15:15:14.650Z,31.50
2022-08-25T15:17:42.129Z,31.51
2022-08-25T15:20:11.914Z,31.50
2022-08-25T15:22:38.625Z,31.61
2022-08-25T15:25:05.648Z,31.77
2022-08-25T15:27:34.359Z,31.74
2022-08-25T15:30:00.921Z,31.18
2022-08-25T15:32:27.846Z,31.29
2022-08-25T15:34:54.530Z,31.08
2022-08-25T15:37:21.059Z,31.03
2022-08-25T15:39:48.831Z,31.00
2022-08-25T15:42:16.601Z,30.94
2022-08-25T15:44:53.429Z,30.84
2022-08-25T15:47:21.180Z,30.76
2022-08-25T15:49:47.807Z,30.65
2022-08-25T15:52:14.397Z,30.56
2022-08-25T15:54:41.037Z,30.63
2022-08-25T15:57:10.522Z,30.59
2022-08-25T15:59:41.127Z,30.63
2022-08-25T16:02:15.253Z,30.82
2022-08-25T16:04:42.065Z,30.86
2022-08-25T16:07:09.625Z,30.94
2022-08-25T16:09:41.239Z,30.60
2022-08-25T16:12:08.626Z,30.69
2022-08-25T16:14:36.621Z,30.74
2022-08-25T16:17:05.218Z,30.73
2022-08-25T16:19:32.209Z,30.67
2022-08-25T16:21:59.860Z,30.53
2022-08-25T16:24:26.805Z,30.66
2022-08-25T16:26:55.788Z,30.72
2022-08-25T16:29:22.685Z,30.68
2022-08-25T16:31:55.018Z,30.61
2022-08-25T16:34:24.711Z,30.52
2022-08-25T16:36:55.454Z,30.54
2022-08-25T16:39:23.965Z,30.47
2022-08-25T16:41:52.032Z,30.46
2022-08-25T16:44:19.625Z,30.44
2022-08-25T16:46:50.046Z,30.47
2022-08-25T16:49:17.526Z,30.39
2022-08-25T16:51:44.082Z,30.40
2022-08-25T16:54:29.956Z,30.31
2022-08-25T16:56:57.596Z,30.14
2022-08-25T16:59:24.786Z,30.19
2022-08-25T17:01:52.457Z,30.27
2022-08-25T17:04:19.559Z,30.16
2022-08-25T17:06:49.638Z,30.13
2022-08-25T17:09:23.040Z,30.15
2022-08-25T17:11:52.650Z,30.17
2022-08-25T17:14:21.920Z,30.01
2022-08-25T17:16:50.910Z,30.06
2022-08-25T17:19:17.602Z,30.02
2022-08-25T17:21:46.181Z,29.93
2022-08-25T17:24:13.851Z,29.87
2022-08-25T17:26:42.079Z,29.91
2022-08-25T17:29:09.683Z,29.92
2022-08-25T17:31:39.604Z,29.84
2022-08-25T17:34:12.009Z,29.70
2022-08-25T17:36:39.844Z,29.71
2022-08-25T17:39:09.655Z,29.65
2022-08-25T17:41:37.564Z,29.42
2022-08-25T17:44:05.530Z,29.22
2022-08-25T17:46:32.359Z,29.21
2022-08-25T17:48:58.974Z,29.15
2022-08-25T17:51:25.795Z,28.96
2022-08-25T17:53:52.841Z,28.73
2022-08-25T17:56:22.764Z,28.41
2022-08-25T17:58:50.070Z,28.25
2022-08-25T18:01:26.886Z,28.15
2022-08-25T18:03:54.418Z,28.12
2022-08-25T18:06:24.442Z,27.78
2022-08-25T18:08:53.634Z,27.64
2022-08-25T18:11:24.436Z,27.60
2022-08-25T18:13:54.840Z,27.41
2022-08-25T18:16:23.333Z,27.65
2022-08-25T18:18:51.474Z,27.26
2022-08-25T18:21:20.844Z,27.58
2022-08-25T18:23:49.382Z,27.48
2022-08-25T18:26:16.455Z,27.39
2022-08-25T18:28:43.758Z,27.18
2022-08-25T18:31:13.324Z,26.89
2022-08-25T18:33:42.105Z,26.70
2022-08-25T18:36:09.392Z,26.73
2022-08-25T18:38:57.943Z,26.53
2022-08-25T18:41:25.970Z,26.44
2022-08-25T18:43:53.023Z,26.38
2022-08-25T18:46:19.866Z,26.33
2022-08-25T18:48:49.930Z,26.31
2022-08-25T18:51:22.279Z,26.25
2022-08-25T18:53:51.169Z,26.30
2022-08-25T18:56:19.403Z,26.20
2022-08-25T18:58:47.142Z,26.14
2022-08-25T19:01:15.484Z,26.10
2022-08-25T19:03:43.077Z,26.03
2022-08-25T19:06:10.598Z,26.00
2022-08-25T19:08:40.058Z,25.92
2022-08-25T19:11:09.919Z,25.84
2022-08-25T19:13:37.612Z,25.76
2022-08-25T19:16:34.190Z,25.67
2022-08-25T19:19:03.261Z,25.80
2022-08-25T19:21:31.208Z,25.57
2022-08-25T19:23:57.975Z,25.55
2022-08-25T19:26:25.437Z,25.52
2022-08-25T19:28:52.695Z,25.49
2022-08-25T19:31:21.655Z,25.45
2022-08-25T19:33:50.208Z,25.41
2022-08-25T19:36:21.343Z,25.37
2022-08-25T19:38:52.224Z,25.35
2022-08-25T19:41:20.964Z,25.33
2022-08-25T19:43:56.222Z,25.26
2022-08-25T19:46:32.937Z,25.23
2022-08-25T19:49:10.303Z,25.19
2022-08-25T19:51:39.230Z,25.13
2022-08-25T19:54:06.922Z,25.12
2022-08-25T19:56:36.503Z,25.15
2022-08-25T19:59:04.018Z,25.07
2022-08-25T20:01:31.735Z,25.07
2022-08-25T20:03:58.627Z,25.03
2022-08-25T20:06:27.749Z,25.00
2022-08-25T20:09:00.410Z,24.99
2022-08-25T20:11:28.885Z,24.86
2022-08-25T20:13:58.152Z,24.82
2022-08-25T20:16:28.093Z,24.78
2022-08-25T20:18:54.791Z,25.07
2022-08-25T20:21:21.337Z,25.17
2022-08-25T20:24:06.514Z,25.15
2022-08-25T20:26:33.029Z,24.91
2022-08-25T20:28:59.655Z,24.91
2022-08-25T20:31:26.458Z,24.91
2022-08-25T20:33:54.087Z,25.00
2022-08-25T20:36:26.855Z,25.15
2022-08-25T20:38:53.392Z,25.08
2022-08-25T20:41:21.130Z,24.92
2022-08-25T20:43:47.664Z,24.82
2022-08-25T20:46:16.243Z,24.76
2022-08-25T20:48:44.302Z,24.63
2022-08-25T20:51:11.754Z,24.64
2022-08-25T20:53:41.391Z,24.56
2022-08-25T20:56:14.317Z,24.51
2022-08-25T20:58:42.472Z,24.31
2022-08-25T21:01:22.880Z,24.21
2022-08-25T21:03:50.448Z,24.12
2022-08-25T21:06:17.151Z,24.19
2022-08-25T21:08:46.552Z,24.32
2022-08-25T21:11:15.548Z,24.42
2022-08-25T21:13:42.135Z,24.42
2022-08-25T21:16:09.060Z,24.26
2022-08-25T21:18:36.219Z,24.17
2022-08-25T21:21:10.812Z,24.13
2022-08-25T21:23:38.606Z,24.09
2022-08-25T21:26:06.142Z,24.13
2022-08-25T21:28:34.643Z,24.10
2022-08-25T21:31:02.081Z,24.03
2022-08-25T21:33:28.722Z,24.00
2022-08-25T21:35:55.795Z,23.92
2022-08-25T21:38:22.384Z,23.87
2022-08-25T21:40:49.026Z,23.94
2022-08-25T21:43:15.696Z,23.83
2022-08-25T21:45:46.817Z,23.69
2022-08-25T21:48:14.079Z,23.67
2022-08-25T21:50:41.043Z,23.73
2022-08-25T21:53:09.551Z,23.69
2022-08-25T21:55:41.850Z,23.65
2022-08-25T21:58:08.730Z,23.66
2022-08-25T22:00:36.974Z,23.57
2022-08-25T22:03:03.602Z,23.53
2022-08-25T22:05:30.122Z,23.45
2022-08-25T22:07:56.741Z,23.45
2022-08-25T22:10:23.768Z,23.41
2022-08-25T22:12:50.460Z,23.32
2022-08-25T22:15:18.010Z,23.27
2022-08-25T22:17:45.699Z,23.39
2022-08-25T22:20:16.127Z,23.26
2022-08-25T22:22:42.769Z,23.15
2022-08-25T22:25:10.206Z,23.09
2022-08-25T22:27:37.252Z,23.06
2022-08-25T22:30:05.799Z,23.07
2022-08-25T22:32:32.941Z,23.07
2022-08-25T22:34:59.610Z,23.04
2022-08-25T22:37:26.203Z,22.99
2022-08-25T22:39:53.267Z,23.00
2022-08-25T22:42:20.020Z,23.01
2022-08-25T22:44:53.767Z,22.93
2022-08-25T22:47:20.589Z,22.94
2022-08-25T22:49:47.145Z,22.96
2022-08-25T22:52:14.507Z,22.83
2022-08-25T22:54:41.473Z,22.86
2022-08-25T22:57:08.051Z,22.83
2022-08-25T22:59:34.615Z,22.64
2022-08-25T23:02:10.505Z,22.70
2022-08-25T23:04:41.476Z,22.50
2022-08-25T23:07:10.290Z,22.56
2022-08-25T23:09:37.228Z,22.52
2022-08-25T23:12:04.628Z,22.43
2022-08-25T23:14:36.603Z,22.20
2022-08-25T23:17:03.645Z,22.13
2022-08-25T23:19:35.045Z,22.08
2022-08-25T23:22:10.989Z,22.23
2022-08-25T23:24:43.104Z,22.30
2022-08-25T23:27:13.600Z,22.21
2022-08-25T23:29:43.055Z,22.12
2022-08-25T23:32:10.193Z,22.26
2022-08-25T23:34:42.935Z,22.38
2022-08-25T23:37:15.103Z,22.21
2022-08-25T23:39:45.328Z,22.15
2022-08-25T23:42:12.048Z,22.15
2022-08-25T23:44:38.578Z,22.11
2022-08-25T23:47:06.984Z,22.04
2022-08-25T23:49:33.682Z,22.09
2022-08-25T23:52:00.211Z,22.08
2022-08-25T23:54:31.155Z,22.06
2022-08-25T23:56:58.709Z,22.03
2022-08-25T23:59:25.474Z,22.10
